Time;durP1;ratioP1;P1;durP2;ratioP2;P2;SDS_P1;SDS_P2;PMS_P1;PMS_P2;Temp;Humidity;BMP_temperature;BMP_pressure;BME280_temperature;BME280_humidity;BME280_pressure;Samples;Min_cycle;Max_cycle;Signal;HPM_P1;HPM_P2
2021/08/31 00:01:09;;;;;;;;;;;;;;;18.77;84.89;99489.44;4860557;29;19928;-84
2021/08/31 00:03:35;;;;;;;;;;;;;;;18.86;84.70;99509.41;4860898;29;20375;-83
2021/08/31 00:06:01;;;;;;;;;;;;;;;18.82;84.98;99507.75;4860589;29;20525;-84
2021/08/31 00:08:27;;;;;;;;;;;;;;;18.76;85.17;99512.75;4874526;29;19924;-84
2021/08/31 00:10:54;;;;;;;;;;;;;;;18.66;85.43;99521.63;4860524;29;19924;-83
2021/08/31 00:13:20;;;;;;;;;;;;;;;18.71;85.38;99522.13;4860386;29;20022;-83
2021/08/31 00:15:46;;;;;;;;;;;;;;;18.75;85.17;99525.00;4860684;29;19927;-84
2021/08/31 00:18:12;;;;;;;;;;;;;;;18.70;85.27;99533.56;4860387;29;19980;-83
2021/08/31 00:20:44;;;;;;;;;;;;;;;18.63;85.70;99531.44;4860170;29;19923;-84
2021/08/31 00:23:12;;;;;;;;;;;;;;;18.57;85.58;99524.56;4859214;29;20474;-83
2021/08/31 00:25:38;;;;;;;;;;;;;;;18.57;85.56;99523.78;4860109;29;19919;-84
2021/08/31 00:28:07;;;;;;;;;;;;;;;18.62;85.67;99515.19;4860553;29;19945;-83
2021/08/31 00:30:33;;;;;;;;;;;;;;;18.61;85.31;99514.41;4858846;29;20010;-83
2021/08/31 00:33:00;;;;;;;;;;;;;;;18.68;85.01;99508.22;4860047;29;19931;-83
2021/08/31 00:35:26;;;;;;;;;;;;;;;18.66;84.83;99500.25;4859114;29;19923;-83
2021/08/31 00:37:52;;;;;;;;;;;;;;;18.65;84.93;99504.19;4860047;29;20416;-83
2021/08/31 00:40:18;;;;;;;;;;;;;;;18.61;85.21;99503.31;4859918;29;20413;-84
2021/08/31 00:42:44;;;;;;;;;;;;;;;18.60;84.90;99503.69;4874485;29;19923;-84
2021/08/31 00:45:11;;;;;;;;;;;;;;;18.62;84.86;99504.13;4860227;29;20287;-83
2021/08/31 00:47:36;;;;;;;;;;;;;;;18.58;84.90;99504.06;4859726;29;19923;-83
2021/08/31 00:50:04;;;;;;;;;;;;;;;18.55;84.94;99502.00;4860119;29;20046;-83
2021/08/31 00:52:30;;;;;;;;;;;;;;;18.53;84.83;99518.97;4859761;29;20488;-83
2021/08/31 00:54:57;;;;;;;;;;;;;;;18.46;85.21;99527.09;4860095;29;19923;-84
2021/08/31 00:57:23;;;;;;;;;;;;;;;18.41;85.41;99521.03;4859695;29;19924;-82
2021/08/31 00:59:50;;;;;;;;;;;;;;;18.45;85.11;99519.97;4859954;29;19928;-83
2021/08/31 01:02:18;;;;;;;;;;;;;;;18.46;84.98;99518.00;4859707;29;19930;-83
2021/08/31 01:04:43;;;;;;;;;;;;;;;18.47;84.90;99516.84;4859951;29;20449;-83
2021/08/31 01:07:09;;;;;;;;;;;;;;;18.47;85.14;99525.13;4860173;29;20014;-84
2021/08/31 01:09:37;;;;;;;;;;;;;;;18.50;85.17;99525.22;4859316;29;20056;-83
2021/08/31 01:12:03;;;;;;;;;;;;;;;18.44;84.85;99523.91;4859396;29;19924;-84
2021/08/31 01:14:29;;;;;;;;;;;;;;;18.38;84.96;99525.34;4858744;29;20359;-84
2021/08/31 01:16:55;;;;;;;;;;;;;;;18.39;84.91;99521.41;4859842;29;20305;-84
2021/08/31 01:19:25;;;;;;;;;;;;;;;18.40;84.96;99523.00;4859021;29;19924;-84
2021/08/31 01:21:52;;;;;;;;;;;;;;;18.44;85.03;99523.09;4859712;29;19924;-88
2021/08/31 01:24:18;;;;;;;;;;;;;;;18.42;84.66;99517.94;4858549;29;19924;-86
2021/08/31 01:26:44;;;;;;;;;;;;;;;18.40;84.38;99516.69;4859672;29;19979;-83
2021/08/31 01:29:10;;;;;;;;;;;;;;;18.36;84.67;99513.03;4859418;29;19924;-83
2021/08/31 01:31:36;;;;;;;;;;;;;;;18.34;84.78;99516.16;4859550;29;19972;-87
2021/08/31 01:34:02;;;;;;;;;;;;;;;18.36;84.39;99521.34;4859470;29;20359;-83
2021/08/31 01:36:27;;;;;;;;;;;;;;;18.36;84.19;99518.56;4859604;29;20030;-83
2021/08/31 01:38:56;;;;;;;;;;;;;;;18.39;84.08;99524.19;4862816;29;20325;-86
2021/08/31 01:41:22;;;;;;;;;;;;;;;18.38;83.95;99519.81;4845034;29;19971;-89
2021/08/31 01:43:48;;;;;;;;;;;;;;;18.34;83.98;99518.91;4856263;29;19978;-84
2021/08/31 01:46:14;;;;;;;;;;;;;;;18.34;84.12;99520.88;4863650;29;19924;-84
2021/08/31 01:48:40;;;;;;;;;;;;;;;18.29;84.14;99525.53;4863406;29;19924;-83
2021/08/31 01:51:06;;;;;;;;;;;;;;;18.18;84.22;99521.72;4862946;29;19931;-83
2021/08/31 01:53:32;;;;;;;;;;;;;;;18.24;84.14;99516.69;4861787;29;19924;-84
2021/08/31 01:55:59;;;;;;;;;;;;;;;18.27;83.88;99521.53;4862008;29;19931;-84
2021/08/31 01:58:31;;;;;;;;;;;;;;;18.28;83.68;99515.63;4846447;29;19924;-83
2021/08/31 02:00:57;;;;;;;;;;;;;;;18.28;83.88;99512.06;4862828;29;19924;-89
2021/08/31 02:03:22;;;;;;;;;;;;;;;18.25;83.75;99513.59;4877189;29;19930;-89
2021/08/31 02:05:48;;;;;;;;;;;;;;;18.25;83.84;99519.13;4862982;29;19923;-85
2021/08/31 02:08:14;;;;;;;;;;;;;;;18.28;83.84;99517.59;4862903;29;20398;-84
2021/08/31 02:10:41;;;;;;;;;;;;;;;18.29;83.90;99519.22;4862671;29;19930;-84
2021/08/31 02:13:08;;;;;;;;;;;;;;;18.28;83.84;99525.91;4862416;29;20027;-84
2021/08/31 02:15:35;;;;;;;;;;;;;;;18.23;83.62;99517.88;4861603;29;19924;-84
2021/08/31 02:18:01;;;;;;;;;;;;;;;18.23;83.64;99520.63;4862785;29;19931;-84
2021/08/31 02:20:26;;;;;;;;;;;;;;;18.25;83.58;99526.63;4862488;29;19924;-84
2021/08/31 02:22:52;;;;;;;;;;;;;;;18.23;83.55;99526.16;4862569;29;19927;-89
2021/08/31 02:25:18;;;;;;;;;;;;;;;18.26;83.62;99531.78;4861196;29;20348;-85
2021/08/31 02:27:45;;;;;;;;;;;;;;;18.23;83.43;99526.97;4862366;29;20028;-89
2021/08/31 02:30:11;;;;;;;;;;;;;;;18.19;83.61;99519.75;4862808;29;19924;-83
2021/08/31 02:32:37;;;;;;;;;;;;;;;18.17;83.69;99528.41;4863099;29;19954;-84
2021/08/31 02:35:03;;;;;;;;;;;;;;;18.19;83.77;99530.81;4863222;29;19971;-83
2021/08/31 02:37:29;;;;;;;;;;;;;;;18.20;83.57;99522.16;4877047;29;20565;-85
2021/08/31 02:39:55;;;;;;;;;;;;;;;18.23;83.42;99526.16;4862411;29;19924;-84
2021/08/31 02:42:21;;;;;;;;;;;;;;;18.24;83.44;99523.03;4862034;29;19924;-84
2021/08/31 02:44:47;;;;;;;;;;;;;;;18.20;83.16;99535.19;4862277;29;20382;-88
2021/08/31 02:47:13;;;;;;;;;;;;;;;18.18;82.95;99535.56;4861907;29;20034;-90
2021/08/31 02:49:40;;;;;;;;;;;;;;;18.18;83.18;99537.50;4861897;29;19924;-83
2021/08/31 02:52:07;;;;;;;;;;;;;;;18.17;83.36;99544.19;4861999;29;19924;-83
2021/08/31 02:54:33;;;;;;;;;;;;;;;18.06;83.61;99546.72;4862033;29;19931;-82
2021/08/31 02:56:59;;;;;;;;;;;;;;;18.03;83.46;99545.47;4861790;29;19954;-84
2021/08/31 02:59:28;;;;;;;;;;;;;;;18.06;83.58;99546.72;4862054;29;20023;-84
2021/08/31 03:02:06;;;;;;;;;;;;;;;17.97;83.72;99541.34;4861975;29;19923;-83
2021/08/31 03:04:38;;;;;;;;;;;;;;;18.02;83.54;99540.28;4861739;29;19963;-83
2021/08/31 03:07:07;;;;;;;;;;;;;;;18.00;83.44;99543.41;4861612;29;19949;-83
2021/08/31 03:09:33;;;;;;;;;;;;;;;18.00;83.70;99553.69;4861941;29;19979;-83
2021/08/31 03:11:59;;;;;;;;;;;;;;;17.97;83.62;99532.25;4861752;29;20441;-83
2021/08/31 03:14:25;;;;;;;;;;;;;;;18.02;83.41;99527.25;4861587;29;20346;-85
2021/08/31 03:16:51;;;;;;;;;;;;;;;18.01;82.96;99535.91;4861551;29;19931;-83
2021/08/31 03:19:20;;;;;;;;;;;;;;;18.04;83.25;99543.50;4861406;29;20475;-82
2021/08/31 03:21:48;;;;;;;;;;;;;;;18.01;83.51;99545.03;4861497;29;20023;-83
2021/08/31 03:24:14;;;;;;;;;;;;;;;18.03;83.17;99544.66;4861459;29;20010;-83
2021/08/31 03:29:06;;;;;;;;;;;;;;;17.95;83.13;99552.00;4862374;29;19920;-84
2021/08/31 03:31:34;;;;;;;;;;;;;;;17.98;83.68;99554.03;4862705;29;19924;-83
2021/08/31 03:36:25;;;;;;;;;;;;;;;18.04;83.00;99552.59;4860942;29;20019;-87
2021/08/31 03:38:51;;;;;;;;;;;;;;;18.06;83.16;99555.81;4861426;29;19931;-84
2021/08/31 03:41:18;;;;;;;;;;;;;;;18.12;82.92;99550.81;4861196;29;19931;-84
2021/08/31 03:43:44;;;;;;;;;;;;;;;18.11;82.31;99542.88;4861228;29;19924;-83
2021/08/31 03:46:12;;;;;;;;;;;;;;;18.12;82.40;99536.19;4861252;29;19927;-84
2021/08/31 03:48:38;;;;;;;;;;;;;;;18.07;82.57;99532.50;4860879;29;19924;-85
2021/08/31 03:51:04;;;;;;;;;;;;;;;18.08;82.65;99520.31;4860989;29;19930;-84
2021/08/31 03:53:30;;;;;;;;;;;;;;;18.10;82.45;99516.38;4859942;29;19924;-83
2021/08/31 03:55:56;;;;;;;;;;;;;;;18.10;81.99;99516.38;4861154;29;20298;-83
2021/08/31 03:58:22;;;;;;;;;;;;;;;18.04;82.09;99507.53;4860624;29;19923;-84
2021/08/31 04:00:50;;;;;;;;;;;;;;;18.12;82.11;99523.16;4860354;29;19928;-84
2021/08/31 04:03:15;;;;;;;;;;;;;;;18.17;82.02;99527.59;4860798;29;19931;-85
2021/08/31 04:05:42;;;;;;;;;;;;;;;18.26;81.58;99525.47;4860794;29;19998;-84
2021/08/31 04:08:08;;;;;;;;;;;;;;;18.28;80.95;99523.16;4860608;29;19935;-83
2021/08/31 04:10:35;;;;;;;;;;;;;;;18.31;80.88;99528.75;4860674;29;19924;-84
2021/08/31 04:13:01;;;;;;;;;;;;;;;18.32;80.62;99535.09;4860355;29;19924;-83
2021/08/31 04:17:53;;;;;;;;;;;;;;;18.35;80.28;99526.06;4860197;29;20014;-84
2021/08/31 04:20:21;;;;;;;;;;;;;;;18.33;80.46;99522.84;4860371;29;19928;-84
2021/08/31 04:22:47;;;;;;;;;;;;;;;18.29;80.46;99514.47;4860047;29;20402;-83
2021/08/31 04:25:13;;;;;;;;;;;;;;;18.28;80.65;99501.00;4860508;29;19924;-84
2021/08/31 04:27:38;;;;;;;;;;;;;;;18.28;80.71;99509.31;4860230;29;20015;-84
2021/08/31 04:30:04;;;;;;;;;;;;;;;18.34;80.71;99504.28;4861432;29;19968;-84
2021/08/31 04:32:30;;;;;;;;;;;;;;;18.35;80.74;99505.91;4860379;29;19924;-84
2021/08/31 04:34:58;;;;;;;;;;;;;;;18.41;80.99;99504.44;4860549;29;19923;-90
2021/08/31 04:37:24;;;;;;;;;;;;;;;18.43;80.51;99502.91;4860533;29;19924;-82
2021/08/31 04:39:49;;;;;;;;;;;;;;;18.47;80.20;99503.78;4860229;29;20394;-86
2021/08/31 04:42:15;;;;;;;;;;;;;;;18.49;79.98;99504.25;4860051;29;20403;-84
2021/08/31 04:44:42;;;;;;;;;;;;;;;18.53;79.86;99501.56;4860174;29;19925;-85
2021/08/31 04:47:07;;;;;;;;;;;;;;;18.50;79.50;99499.50;4860158;29;19934;-83
2021/08/31 04:49:33;;;;;;;;;;;;;;;18.54;79.28;99490.13;4874076;29;19931;-82
2021/08/31 04:51:59;;;;;;;;;;;;;;;18.53;79.76;99496.81;4860097;29;19935;-89
2021/08/31 04:54:25;;;;;;;;;;;;;;;18.55;79.83;99496.47;4874319;29;20403;-84
2021/08/31 04:56:51;;;;;;;;;;;;;;;18.50;79.85;99492.00;4859932;29;19923;-90
2021/08/31 04:59:17;;;;;;;;;;;;;;;18.52;79.45;99486.13;4867093;29;19967;-84
2021/08/31 05:01:43;;;;;;;;;;;;;;;18.46;79.30;99476.47;4859643;29;19928;-82
2021/08/31 05:04:09;;;;;;;;;;;;;;;18.39;79.23;99479.09;4856526;29;19931;-81
2021/08/31 05:06:37;;;;;;;;;;;;;;;18.25;79.72;99479.59;4863206;29;20462;-81
2021/08/31 05:09:03;;;;;;;;;;;;;;;18.29;79.90;99483.22;4861768;29;20008;-86
2021/08/31 05:11:30;;;;;;;;;;;;;;;18.31;79.73;99483.69;4865385;29;20407;-89
2021/08/31 05:13:55;;;;;;;;;;;;;;;18.34;79.86;99485.69;4860286;29;19924;-88
2021/08/31 05:16:21;;;;;;;;;;;;;;;18.38;79.99;99485.81;4861427;29;19924;-83
2021/08/31 05:18:49;;;;;;;;;;;;;;;18.36;79.38;99483.38;4867208;29;19927;-90
2021/08/31 05:21:15;;;;;;;;;;;;;;;18.25;80.17;99490.66;4859358;29;19987;-83
2021/08/31 05:23:42;;;;;;;;;;;;;;;18.25;80.20;99485.13;4858741;29;20335;-82
2021/08/31 05:26:08;;;;;;;;;;;;;;;18.28;79.98;99487.16;4861149;29;19935;-92
2021/08/31 05:28:34;;;;;;;;;;;;;;;18.42;80.43;99490.25;4861877;29;19983;-85
2021/08/31 05:30:59;;;;;;;;;;;;;;;18.47;79.52;99489.16;4860881;29;19939;-85
2021/08/31 05:33:25;;;;;;;;;;;;;;;18.52;79.13;99492.44;4857562;29;19924;-85
2021/08/31 05:35:51;;;;;;;;;;;;;;;18.54;78.85;99490.13;4860846;29;19932;-83
2021/08/31 05:38:17;;;;;;;;;;;;;;;18.56;78.70;99484.22;4859411;29;19923;-82
2021/08/31 05:40:42;;;;;;;;;;;;;;;18.63;78.64;99478.84;4859987;29;19979;-95
2021/08/31 05:43:09;;;;;;;;;;;;;;;18.65;77.77;99467.41;4865108;29;20636;-83
2021/08/31 05:45:35;;;;;;;;;;;;;;;18.62;78.45;99481.97;4861255;29;19987;-84
2021/08/31 05:48:00;;;;;;;;;;;;;;;18.69;78.99;99482.91;4867004;29;19924;-84
2021/08/31 05:50:26;;;;;;;;;;;;;;;18.76;77.87;99490.59;4870521;29;19931;-84
2021/08/31 05:52:52;;;;;;;;;;;;;;;18.82;77.54;99475.31;4863054;29;19987;-96
2021/08/31 05:55:20;;;;;;;;;;;;;;;18.85;77.71;99471.00;4863621;29;19931;-96
2021/08/31 05:57:45;;;;;;;;;;;;;;;18.87;76.96;99466.69;4866106;29;19986;-82
2021/08/31 06:00:12;;;;;;;;;;;;;;;18.81;77.94;99467.34;4864333;29;19998;-85
2021/08/31 06:02:39;;;;;;;;;;;;;;;18.84;77.95;99467.44;4884828;29;19927;-96
2021/08/31 06:05:08;;;;;;;;;;;;;;;18.87;78.23;99469.47;4877223;29;19924;-92
2021/08/31 06:07:35;;;;;;;;;;;;;;;18.86;77.11;99467.06;4863589;29;19924;-83
2021/08/31 06:10:09;;;;;;;;;;;;;;;18.90;77.89;99467.94;4864871;29;19976;-85
2021/08/31 06:12:37;;;;;;;;;;;;;;;18.91;77.58;99464.03;4884149;29;19951;-84
2021/08/31 06:15:04;;;;;;;;;;;;;;;18.90;77.43;99462.41;4865025;29;19959;-85
2021/08/31 06:17:31;;;;;;;;;;;;;;;18.86;77.91;99467.88;4878227;29;19951;-85
2021/08/31 06:19:57;;;;;;;;;;;;;;;18.82;77.56;99469.78;4868735;29;20023;-84
2021/08/31 06:22:25;;;;;;;;;;;;;;;18.81;78.11;99465.41;4861355;29;20438;-84
2021/08/31 06:24:51;;;;;;;;;;;;;;;18.80;77.35;99468.53;4862269;29;19920;-85
2021/08/31 06:27:16;;;;;;;;;;;;;;;18.83;77.80;99467.78;4861951;29;19967;-83
2021/08/31 06:29:42;;;;;;;;;;;;;;;18.85;78.10;99463.50;4861971;29;20408;-84
2021/08/31 06:32:08;;;;;;;;;;;;;;;18.90;77.44;99463.19;4861969;29;19924;-84
2021/08/31 06:34:34;;;;;;;;;;;;;;;19.02;77.68;99463.03;4860799;29;20416;-87
2021/08/31 06:37:00;;;;;;;;;;;;;;;19.12;76.94;99458.88;4870144;29;20362;-87
2021/08/31 06:39:26;;;;;;;;;;;;;;;19.16;76.75;99464.50;4875854;29;20012;-87
2021/08/31 06:41:52;;;;;;;;;;;;;;;19.21;76.09;99466.97;4860931;29;20432;-85
2021/08/31 06:44:19;;;;;;;;;;;;;;;19.34;76.10;99468.41;4861547;29;20456;-87
2021/08/31 06:46:45;;;;;;;;;;;;;;;19.46;75.56;99468.22;4861588;29;19924;-85
2021/08/31 06:49:11;;;;;;;;;;;;;;;19.64;74.61;99465.00;4880541;29;19924;-86
2021/08/31 06:51:37;;;;;;;;;;;;;;;19.74;73.19;99464.38;4880391;29;19920;-86
2021/08/31 06:54:02;;;;;;;;;;;;;;;19.79;72.80;99457.72;4863081;29;20313;-86
2021/08/31 06:56:28;;;;;;;;;;;;;;;19.91;72.94;99457.50;4875226;29;19931;-84
2021/08/31 06:58:54;;;;;;;;;;;;;;;20.04;72.96;99460.88;4884588;29;19920;-86
2021/08/31 07:01:21;;;;;;;;;;;;;;;20.10;71.61;99456.63;4861016;29;19924;-86
2021/08/31 07:03:47;;;;;;;;;;;;;;;20.18;70.84;99459.13;4860984;29;20517;-86
2021/08/31 07:06:13;;;;;;;;;;;;;;;20.21;70.96;99465.09;4861164;29;20019;-85
2021/08/31 07:08:39;;;;;;;;;;;;;;;20.31;70.84;99462.47;4860031;29;20018;-87
2021/08/31 07:11:05;;;;;;;;;;;;;;;20.30;70.43;99458.09;4860252;29;19924;-87
2021/08/31 07:13:31;;;;;;;;;;;;;;;20.27;71.25;99453.31;4861530;29;19946;-87
2021/08/31 07:15:56;;;;;;;;;;;;;;;20.17;71.66;99451.19;4861745;29;19924;-86
2021/08/31 07:18:22;;;;;;;;;;;;;;;20.22;71.90;99450.84;4862010;29;19932;-87
2021/08/31 07:20:48;;;;;;;;;;;;;;;20.19;71.06;99457.94;4860765;29;19928;-93
2021/08/31 07:23:14;;;;;;;;;;;;;;;20.20;71.26;99444.88;4860882;29;19967;-86
2021/08/31 07:25:43;;;;;;;;;;;;;;;20.11;71.36;99447.13;4862478;29;20031;-86
2021/08/31 07:28:10;;;;;;;;;;;;;;;19.95;72.37;99438.94;4862660;29;19975;-85
2021/08/31 07:30:36;;;;;;;;;;;;;;;19.97;72.25;99438.56;4862365;29;19924;-85
2021/08/31 07:33:05;;;;;;;;;;;;;;;19.99;72.21;99430.66;4861873;29;19924;-96
2021/08/31 07:35:31;;;;;;;;;;;;;;;20.00;71.97;99430.31;4860073;29;19931;-96
2021/08/31 07:37:57;;;;;;;;;;;;;;;20.02;72.48;99430.72;4861844;29;19923;-90
2021/08/31 07:40:23;;;;;;;;;;;;;;;20.04;72.55;99435.91;4861265;29;19924;-93
2021/08/31 07:42:52;;;;;;;;;;;;;;;19.99;72.30;99425.13;4859344;29;20018;-86
2021/08/31 07:45:18;;;;;;;;;;;;;;;20.03;72.58;99417.66;4861128;29;19924;-93
2021/08/31 07:47:44;;;;;;;;;;;;;;;20.14;72.92;99408.31;4861144;29;19923;-86
2021/08/31 07:50:10;;;;;;;;;;;;;;;20.22;72.33;99411.19;4860125;29;20064;-87
2021/08/31 07:52:36;;;;;;;;;;;;;;;20.28;71.85;99407.69;4861990;29;19931;-92
2021/08/31 07:55:04;;;;;;;;;;;;;;;20.29;72.50;99400.16;4861223;29;19931;-85
2021/08/31 07:57:29;;;;;;;;;;;;;;;20.38;72.30;99393.16;4860764;29;20015;-81
2021/08/31 07:59:55;;;;;;;;;;;;;;;20.54;71.05;99397.75;4860670;29;19927;-82
2021/08/31 08:02:21;;;;;;;;;;;;;;;20.62;70.24;99403.00;4860864;29;19924;-85
2021/08/31 08:04:47;;;;;;;;;;;;;;;20.57;69.23;99405.34;4861135;29;19924;-84
2021/08/31 08:07:13;;;;;;;;;;;;;;;20.65;69.85;99407.00;4861262;29;20540;-87
2021/08/31 08:09:40;;;;;;;;;;;;;;;20.65;70.08;99395.91;4860893;29;19935;-83
2021/08/31 08:12:07;;;;;;;;;;;;;;;20.42;70.18;99394.00;4861172;29;19931;-89
2021/08/31 08:14:33;;;;;;;;;;;;;;;20.46;71.43;99391.25;4861736;29;19928;-91
2021/08/31 08:16:59;;;;;;;;;;;;;;;20.35;71.08;99395.88;4859821;29;20031;-82
2021/08/31 08:19:24;;;;;;;;;;;;;;;20.31;71.18;99393.06;4860410;29;20309;-91
2021/08/31 08:21:50;;;;;;;;;;;;;;;20.40;72.56;99395.56;4858922;29;20042;-84
2021/08/31 08:24:16;;;;;;;;;;;;;;;20.47;71.93;99397.66;4874253;29;19978;-88
2021/08/31 08:26:42;;;;;;;;;;;;;;;20.50;70.75;99385.78;4874390;29;19924;-81
2021/08/31 08:29:08;;;;;;;;;;;;;;;20.55;70.99;99382.69;4860173;29;19935;-86
2021/08/31 08:31:35;;;;;;;;;;;;;;;20.62;70.90;99380.00;4859598;29;19923;-84
2021/08/31 08:34:02;;;;;;;;;;;;;;;20.69;70.76;99379.28;4861693;29;19923;-87
2021/08/31 08:36:28;;;;;;;;;;;;;;;20.76;70.37;99373.78;4860360;29;19924;-83
2021/08/31 08:38:54;;;;;;;;;;;;;;;20.85;69.08;99377.88;4860601;29;20040;-87
2021/08/31 08:41:20;;;;;;;;;;;;;;;20.95;67.74;99379.16;4859977;29;20387;-79
2021/08/31 08:43:46;;;;;;;;;;;;;;;21.04;68.43;99376.88;4859727;29;19963;-92
2021/08/31 08:46:12;;;;;;;;;;;;;;;21.08;67.98;99369.38;4828610;29;19946;-87
2021/08/31 08:48:38;;;;;;;;;;;;;;;21.15;68.15;99371.41;4863698;29;20386;-88
2021/08/31 08:51:05;;;;;;;;;;;;;;;21.23;66.93;99370.31;4861866;29;19959;-89
2021/08/31 08:53:32;;;;;;;;;;;;;;;21.21;67.97;99377.44;4857847;29;19931;-78
2021/08/31 08:56:00;;;;;;;;;;;;;;;21.23;67.57;99361.97;4859195;29;19972;-88
2021/08/31 08:58:27;;;;;;;;;;;;;;;21.35;67.85;99360.91;4858037;29;19924;-84
2021/08/31 09:00:53;;;;;;;;;;;;;;;21.48;67.41;99361.41;4861205;29;19924;-92
2021/08/31 09:03:20;;;;;;;;;;;;;;;21.49;67.57;99357.44;4870765;29;19931;-90
2021/08/31 09:05:45;;;;;;;;;;;;;;;21.49;67.54;99355.47;4858944;29;20014;-85
2021/08/31 09:08:13;;;;;;;;;;;;;;;21.58;66.22;99350.34;4855683;29;20338;-85
2021/08/31 09:10:42;;;;;;;;;;;;;;;21.71;64.60;99345.28;4858679;29;20469;-87
2021/08/31 09:13:21;;;;;;;;;;;;;;;21.84;65.10;99345.75;4856168;29;19935;-81
2021/08/31 09:15:48;;;;;;;;;;;;;;;21.92;64.66;99352.16;4857605;29;19986;-81
2021/08/31 09:18:17;;;;;;;;;;;;;;;22.00;64.54;99348.25;4858155;29;20023;-80
2021/08/31 09:20:46;;;;;;;;;;;;;;;22.12;63.89;99342.34;4858359;29;19955;-81
2021/08/31 09:23:22;;;;;;;;;;;;;;;22.25;64.35;99340.03;4858060;29;20370;-79
2021/08/31 09:25:49;;;;;;;;;;;;;;;22.24;63.09;99338.44;4860775;29;19931;-80
2021/08/31 09:28:20;;;;;;;;;;;;;;;22.28;62.92;99333.69;4863028;29;20354;-82
2021/08/31 09:30:55;;;;;;;;;;;;;;;22.24;64.28;99333.66;4855505;29;20291;-80
2021/08/31 09:33:20;;;;;;;;;;;;;;;22.32;64.79;99334.53;4859454;29;19924;-87
2021/08/31 09:35:58;;;;;;;;;;;;;;;22.43;64.21;99331.78;4858859;29;19924;-84
2021/08/31 09:38:25;;;;;;;;;;;;;;;22.42;63.58;99333.75;4858669;29;19931;-80
2021/08/31 09:40:53;;;;;;;;;;;;;;;22.56;63.97;99327.44;4858526;29;19924;-75
2021/08/31 09:43:22;;;;;;;;;;;;;;;22.74;63.67;99328.25;4857846;29;20018;-74
2021/08/31 09:45:49;;;;;;;;;;;;;;;22.89;62.19;99331.09;4870000;29;19935;-75
2021/08/31 09:48:16;;;;;;;;;;;;;;;23.01;60.66;99330.72;4871875;29;19924;-75
2021/08/31 09:50:46;;;;;;;;;;;;;;;23.12;62.46;99320.41;4867548;29;19924;-76
2021/08/31 09:53:17;;;;;;;;;;;;;;;23.16;61.00;99323.97;4858738;29;19973;-75
2021/08/31 09:55:46;;;;;;;;;;;;;;;23.24;61.29;99318.41;4859892;29;19930;-74
2021/08/31 09:58:31;;;;;;;;;;;;;;;23.32;61.58;99323.59;4861377;29;19932;-88
2021/08/31 10:00:57;;;;;;;;;;;;;;;23.30;61.43;99320.38;4856987;29;20022;-87
2021/08/31 10:03:24;;;;;;;;;;;;;;;23.29;61.27;99313.22;4860820;29;20557;-89
2021/08/31 10:05:50;;;;;;;;;;;;;;;23.31;60.06;99316.44;4862672;29;21264;-87
2021/08/31 10:08:17;;;;;;;;;;;;;;;23.38;61.11;99319.22;4885104;29;19924;-79
2021/08/31 10:10:44;;;;;;;;;;;;;;;23.47;59.04;99318.78;4868372;29;19942;-78
2021/08/31 10:13:11;;;;;;;;;;;;;;;23.56;60.15;99316.38;4862001;29;20011;-83
2021/08/31 10:15:40;;;;;;;;;;;;;;;23.66;58.38;99312.78;4861361;29;19931;-82
2021/08/31 10:18:10;;;;;;;;;;;;;;;23.77;58.34;99312.00;4865702;29;19920;-82
2021/08/31 10:20:43;;;;;;;;;;;;;;;23.87;59.20;99311.16;4864910;29;19923;-83
2021/08/31 10:23:10;;;;;;;;;;;;;;;23.94;57.91;99307.56;4861034;29;19924;-89
2021/08/31 10:25:36;;;;;;;;;;;;;;;24.01;57.73;99311.16;4830446;29;20054;-85
2021/08/31 10:28:20;;;;;;;;;;;;;;;24.13;58.29;99313.47;4870729;29;20014;-86
2021/08/31 10:30:47;;;;;;;;;;;;;;;24.19;57.14;99310.28;4869274;29;19924;-86
2021/08/31 10:33:29;;;;;;;;;;;;;;;24.17;56.33;99309.88;4862384;29;19924;-80
2021/08/31 10:35:55;;;;;;;;;;;;;;;24.16;56.97;99309.09;4861935;29;19923;-87
2021/08/31 10:38:40;;;;;;;;;;;;;;;24.25;56.58;99311.44;4864013;29;19972;-86
2021/08/31 10:41:25;;;;;;;;;;;;;;;24.37;57.17;99305.38;4894090;29;19960;-86
2021/08/31 10:43:53;;;;;;;;;;;;;;;24.50;57.46;99305.75;4875525;29;19924;-85
2021/08/31 10:46:19;;;;;;;;;;;;;;;24.68;56.84;99306.47;4861542;29;19923;-86
2021/08/31 10:48:58;;;;;;;;;;;;;;;24.78;56.21;99305.59;4893543;29;19928;-87
2021/08/31 10:51:24;;;;;;;;;;;;;;;24.87;56.29;99295.94;4877751;29;19923;-90
2021/08/31 10:53:50;;;;;;;;;;;;;;;24.99;56.63;99301.84;4865994;29;19934;-79
2021/08/31 10:56:22;;;;;;;;;;;;;;;25.09;56.70;99291.78;4861529;29;20313;-79
2021/08/31 10:58:51;;;;;;;;;;;;;;;25.18;55.22;99303.34;4861270;29;19950;-91
2021/08/31 11:01:23;;;;;;;;;;;;;;;25.22;55.05;99292.13;4862191;29;20026;-83
2021/08/31 11:03:50;;;;;;;;;;;;;;;25.28;55.53;99298.88;4870753;29;19943;-83
2021/08/31 11:06:18;;;;;;;;;;;;;;;25.36;55.45;99288.41;4861230;29;19947;-83
2021/08/31 11:09:01;;;;;;;;;;;;;;;25.36;55.05;99286.38;4859618;29;19930;-84
2021/08/31 11:11:27;;;;;;;;;;;;;;;25.43;55.10;99296.72;4861822;29;19924;-83
2021/08/31 11:13:56;;;;;;;;;;;;;;;25.54;54.43;99287.03;4861864;29;19926;-85
2021/08/31 11:16:28;;;;;;;;;;;;;;;25.71;54.47;99281.66;4880599;29;20537;-88
2021/08/31 11:21:28;;;;;;;;;;;;;;;25.95;52.97;99296.63;4876450;29;20358;-90
2021/08/31 11:24:05;;;;;;;;;;;;;;;25.99;53.66;99286.97;4859688;29;19923;-89
2021/08/31 11:26:33;;;;;;;;;;;;;;;26.02;53.18;99283.31;4861065;29;20303;-93
2021/08/31 11:29:05;;;;;;;;;;;;;;;26.12;51.93;99278.78;4876257;29;19931;-80
2021/08/31 11:31:32;;;;;;;;;;;;;;;26.19;51.37;99267.53;4861415;29;19980;-81
2021/08/31 11:33:58;;;;;;;;;;;;;;;26.25;51.07;99271.41;4861396;29;19924;-81
2021/08/31 11:36:25;;;;;;;;;;;;;;;26.27;50.74;99261.81;4861434;29;20022;-92
2021/08/31 11:38:53;;;;;;;;;;;;;;;26.30;51.30;99260.97;4861415;29;20014;-94
2021/08/31 11:41:24;;;;;;;;;;;;;;;26.31;50.25;99263.34;4844501;29;19955;-82
2021/08/31 11:44:03;;;;;;;;;;;;;;;26.37;50.81;99258.88;4861005;29;19945;-83
2021/08/31 11:46:31;;;;;;;;;;;;;;;26.49;51.21;99263.16;4861235;29;19924;-82
2021/08/31 11:49:07;;;;;;;;;;;;;;;26.51;50.43;99235.47;4860799;29;19947;-81
2021/08/31 11:51:33;;;;;;;;;;;;;;;26.68;50.11;99236.41;4859938;29;19930;-79
2021/08/31 11:54:06;;;;;;;;;;;;;;;26.78;49.31;99232.66;4860600;29;20363;-78
2021/08/31 11:56:32;;;;;;;;;;;;;;;26.86;47.04;99242.56;4859280;29;19950;-80
2021/08/31 11:58:58;;;;;;;;;;;;;;;26.97;47.59;99235.97;4859573;29;20023;-79
2021/08/31 12:01:28;;;;;;;;;;;;;;;27.02;46.39;99230.66;4860844;29;20042;-87
2021/08/31 12:03:54;;;;;;;;;;;;;;;27.04;45.72;99222.59;4861152;29;19929;-90
2021/08/31 12:06:20;;;;;;;;;;;;;;;27.14;45.68;99229.28;4859636;29;19988;-90
2021/08/31 12:08:47;;;;;;;;;;;;;;;27.26;46.35;99222.28;4874431;29;19924;-89
2021/08/31 12:11:14;;;;;;;;;;;;;;;27.32;44.60;99206.53;4859515;29;19924;-91
2021/08/31 12:13:42;;;;;;;;;;;;;;;27.36;44.87;99210.06;4860184;29;19935;-89
2021/08/31 12:16:11;;;;;;;;;;;;;;;27.41;46.03;99196.28;4861079;29;20406;-90
2021/08/31 12:18:37;;;;;;;;;;;;;;;27.44;43.65;99191.84;4843968;29;19976;-91
2021/08/31 12:21:20;;;;;;;;;;;;;;;27.47;44.99;99188.16;4843434;29;20298;-90
2021/08/31 12:23:48;;;;;;;;;;;;;;;27.53;41.75;99183.63;4875649;29;19924;-92
2021/08/31 12:26:31;;;;;;;;;;;;;;;27.63;41.87;99177.03;4874419;29;19924;-91
2021/08/31 12:29:05;;;;;;;;;;;;;;;27.69;39.67;99174.50;4874780;29;19924;-89
2021/08/31 12:31:33;;;;;;;;;;;;;;;27.61;40.07;99167.44;4870485;29;20228;-90
2021/08/31 12:33:59;;;;;;;;;;;;;;;27.56;40.88;99165.16;4844078;29;19924;-90
2021/08/31 12:36:29;;;;;;;;;;;;;;;27.53;39.83;99164.00;4859378;29;20378;-90
2021/08/31 12:38:57;;;;;;;;;;;;;;;27.57;40.93;99155.50;4843589;29;19962;-92
2021/08/31 12:41:26;;;;;;;;;;;;;;;27.57;40.29;99155.50;4875995;29;19923;-91
2021/08/31 12:43:56;;;;;;;;;;;;;;;27.56;40.29;99151.91;4874387;29;19924;-88
2021/08/31 12:46:26;;;;;;;;;;;;;;;27.49;37.86;99145.63;4859226;29;19931;-89
2021/08/31 12:49:11;;;;;;;;;;;;;;;27.45;40.38;99142.09;4874265;29;19924;-84
2021/08/31 12:51:38;;;;;;;;;;;;;;;27.43;38.17;99136.91;4835184;29;19923;-91
2021/08/31 12:54:05;;;;;;;;;;;;;;;27.40;38.56;99132.94;4856902;29;19974;-87
2021/08/31 12:56:32;;;;;;;;;;;;;;;27.38;38.70;99127.00;4834254;29;19924;-86
2021/08/31 12:59:05;;;;;;;;;;;;;;;27.37;37.40;99130.22;4858751;29;19924;-88